Time;durP1;ratioP1;P1;durP2;ratioP2;P2;SDS_P1;SDS_P2;PMS_P1;PMS_P2;Temp;Humidity;BMP_temperature;BMP_pressure;BME280_temperature;BME280_humidity;BME280_pressure;Samples;Min_cycle;Max_cycle;Signal;HPM_P1;HPM_P2
2021/05/13 00:00:08;;;;;;;;;;;9.40;99.90;;;;;;5022983;28;19943;-80
2021/05/13 00:02:34;;;;;;;;;;;9.40;99.90;;;;;;5017005;28;19925;-80
2021/05/13 00:05:00;;;;;;;;;;;9.40;99.90;;;;;;5016769;28;19932;-80
2021/05/13 00:07:27;;;;;;;;;;;9.50;99.90;;;;;;5016867;28;19927;-80
2021/05/13 00:09:54;;;;;;;;;;;9.50;99.90;;;;;;5016799;28;19921;-80
2021/05/13 00:12:36;;;;;;;;;;;9.50;99.90;;;;;;5016643;28;19928;-80
2021/05/13 00:15:05;;;;;;;;;;;9.50;99.90;;;;;;5016810;28;19952;-80
2021/05/13 00:17:31;;;;;;;;;;;9.60;99.90;;;;;;5016571;28;19995;-80
2021/05/13 00:19:58;;;;;;;;;;;9.60;99.90;;;;;;5016604;28;19921;-80
2021/05/13 00:22:25;;;;;;;;;;;9.60;99.90;;;;;;5016580;28;19970;-81
2021/05/13 00:24:52;;;;;;;;;;;9.60;99.90;;;;;;5016648;28;20003;-80
2021/05/13 00:27:18;;;;;;;;;;;9.60;99.90;;;;;;5016645;28;19921;-80
2021/05/13 00:29:45;;;;;;;;;;;9.70;99.90;;;;;;5016242;28;19921;-80
2021/05/13 00:32:11;;;;;;;;;;;9.70;99.90;;;;;;5016668;28;19932;-79
2021/05/13 00:34:37;;;;;;;;;;;9.70;99.90;;;;;;5016320;28;19929;-80
2021/05/13 00:37:04;;;;;;;;;;;9.70;99.90;;;;;;5016504;28;19922;-80
2021/05/13 00:39:30;;;;;;;;;;;9.70;99.90;;;;;;5016420;28;19921;-80
2021/05/13 00:41:57;;;;;;;;;;;9.70;99.90;;;;;;5016248;28;19921;-80
2021/05/13 00:44:24;;;;;;;;;;;9.70;99.90;;;;;;5016126;28;19921;-80
2021/05/13 00:46:50;;;;;;;;;;;9.70;99.90;;;;;;5031633;28;19924;-80
2021/05/13 00:49:18;;;;;;;;;;;9.70;99.90;;;;;;5035878;28;19925;-80
2021/05/13 00:51:45;;;;;;;;;;;9.70;99.90;;;;;;5035845;28;19921;-80
2021/05/13 00:54:12;;;;;;;;;;;9.70;99.90;;;;;;5035812;28;19920;-80
2021/05/13 00:56:38;;;;;;;;;;;9.60;99.90;;;;;;5035778;28;19921;-80
2021/05/13 00:59:07;;;;;;;;;;;9.60;99.90;;;;;;5035375;28;19921;-80
2021/05/13 01:01:48;;;;;;;;;;;9.60;99.90;;;;;;5035590;28;20015;-81
2021/05/13 01:04:16;;;;;;;;;;;9.60;99.90;;;;;;5035919;28;20252;-80
2021/05/13 01:06:42;;;;;;;;;;;9.60;99.90;;;;;;5035598;28;19925;-80
2021/05/13 01:09:10;;;;;;;;;;;9.60;99.90;;;;;;5035660;28;19921;-80
2021/05/13 01:11:38;;;;;;;;;;;9.60;99.90;;;;;;5035753;28;20264;-80
2021/05/13 01:14:14;;;;;;;;;;;9.60;99.90;;;;;;5035305;28;19931;-80
2021/05/13 01:16:50;;;;;;;;;;;9.60;99.90;;;;;;5035625;28;19982;-80
2021/05/13 01:19:17;;;;;;;;;;;9.50;99.90;;;;;;5027621;28;19925;-80
2021/05/13 01:21:44;;;;;;;;;;;9.50;99.90;;;;;;5035527;28;19921;-80
2021/05/13 01:24:11;;;;;;;;;;;9.50;99.90;;;;;;5035455;28;19982;-80
2021/05/13 01:26:38;;;;;;;;;;;9.50;99.90;;;;;;5035203;28;19928;-80
2021/05/13 01:29:04;;;;;;;;;;;9.50;99.90;;;;;;5035235;28;20337;-80
2021/05/13 01:31:30;;;;;;;;;;;9.50;99.90;;;;;;5035420;28;19920;-80
2021/05/13 01:33:57;;;;;;;;;;;9.50;99.90;;;;;;5035370;28;19920;-80
2021/05/13 01:36:23;;;;;;;;;;;9.40;99.90;;;;;;5035375;28;19932;-80
2021/05/13 01:38:50;;;;;;;;;;;9.40;99.90;;;;;;5035173;28;19928;-80
2021/05/13 01:41:17;;;;;;;;;;;9.40;99.90;;;;;;5035204;28;19927;-80
2021/05/13 01:43:43;;;;;;;;;;;9.40;99.90;;;;;;5034864;28;20015;-80
2021/05/13 01:46:09;;;;;;;;;;;9.40;99.90;;;;;;5034998;28;19925;-80
2021/05/13 01:48:36;;;;;;;;;;;9.30;99.90;;;;;;5034987;28;19921;-80
2021/05/13 01:51:02;;;;;;;;;;;9.30;99.90;;;;;;5034954;28;19962;-80
2021/05/13 01:53:28;;;;;;;;;;;9.30;99.90;;;;;;5035091;28;19931;-80
2021/05/13 01:55:56;;;;;;;;;;;9.30;99.90;;;;;;5034711;28;19921;-81
2021/05/13 01:58:22;;;;;;;;;;;9.30;99.90;;;;;;5034760;28;19955;-80
2021/05/13 02:00:49;;;;;;;;;;;9.30;99.90;;;;;;5034710;28;19931;-80
2021/05/13 02:03:16;;;;;;;;;;;9.30;99.90;;;;;;5034709;28;19921;-80
2021/05/13 02:05:42;;;;;;;;;;;9.30;99.90;;;;;;5034623;28;19925;-80
2021/05/13 02:08:09;;;;;;;;;;;9.30;99.90;;;;;;5034625;28;19929;-80
2021/05/13 02:10:35;;;;;;;;;;;9.40;99.90;;;;;;5040465;28;20307;-80
2021/05/13 02:13:03;;;;;;;;;;;9.40;99.90;;;;;;5041227;28;20345;-80
2021/05/13 02:15:29;;;;;;;;;;;9.40;99.90;;;;;;5041358;28;19921;-80
2021/05/13 02:17:55;;;;;;;;;;;9.40;99.90;;;;;;5041200;28;20363;-80
2021/05/13 02:20:22;;;;;;;;;;;9.40;99.90;;;;;;5041252;28;19921;-80
2021/05/13 02:22:48;;;;;;;;;;;9.40;99.90;;;;;;5041011;28;19979;-80
2021/05/13 02:25:15;;;;;;;;;;;9.40;99.90;;;;;;5041286;28;19921;-80
2021/05/13 02:27:41;;;;;;;;;;;9.40;99.90;;;;;;5041391;28;19931;-80
2021/05/13 02:30:09;;;;;;;;;;;9.30;99.90;;;;;;5040818;28;19921;-81
2021/05/13 02:32:35;;;;;;;;;;;9.30;99.90;;;;;;5041228;28;19974;-80
2021/05/13 02:35:02;;;;;;;;;;;9.30;99.90;;;;;;5040974;28;19921;-80
2021/05/13 02:37:28;;;;;;;;;;;9.30;99.90;;;;;;5040793;28;20349;-79
2021/05/13 02:39:54;;;;;;;;;;;9.30;99.90;;;;;;5040975;28;20403;-79
2021/05/13 02:42:21;;;;;;;;;;;9.30;99.90;;;;;;5041022;28;19920;-79
2021/05/13 02:44:47;;;;;;;;;;;9.30;99.90;;;;;;5040865;28;19921;-80
2021/05/13 02:47:14;;;;;;;;;;;9.30;99.90;;;;;;5040769;28;19931;-79
2021/05/13 02:49:41;;;;;;;;;;;9.30;99.90;;;;;;5041011;28;20369;-81
2021/05/13 02:52:07;;;;;;;;;;;9.30;99.90;;;;;;5040922;28;19921;-80
2021/05/13 02:54:33;;;;;;;;;;;9.30;99.90;;;;;;5041171;28;20295;-80
2021/05/13 02:57:00;;;;;;;;;;;9.30;99.90;;;;;;5040844;28;20273;-82
2021/05/13 02:59:32;;;;;;;;;;;9.30;99.90;;;;;;5040827;28;19921;-80
2021/05/13 03:01:58;;;;;;;;;;;9.30;99.90;;;;;;5041170;28;19921;-81
2021/05/13 03:04:25;;;;;;;;;;;9.30;99.90;;;;;;5040724;28;19921;-81
2021/05/13 03:06:52;;;;;;;;;;;9.30;99.90;;;;;;5040870;28;19925;-81
2021/05/13 03:09:19;;;;;;;;;;;9.40;99.90;;;;;;5040713;28;19925;-84
2021/05/13 03:11:45;;;;;;;;;;;9.40;99.90;;;;;;5040377;28;19921;-83
2021/05/13 03:14:12;;;;;;;;;;;9.40;99.90;;;;;;5040635;28;19921;-82
2021/05/13 03:16:38;;;;;;;;;;;9.40;99.90;;;;;;5040908;28;19963;-81
2021/05/13 03:19:09;;;;;;;;;;;9.40;99.90;;;;;;5040739;28;19943;-81
2021/05/13 03:21:38;;;;;;;;;;;9.40;99.90;;;;;;5037269;28;20398;-84
2021/05/13 03:24:10;;;;;;;;;;;9.40;99.90;;;;;;5037740;28;19925;-81
2021/05/13 03:26:44;;;;;;;;;;;9.40;99.90;;;;;;5037433;28;19932;-82
2021/05/13 03:29:10;;;;;;;;;;;9.40;99.90;;;;;;5037198;28;20397;-80
2021/05/13 03:31:36;;;;;;;;;;;9.40;99.90;;;;;;5036912;28;19990;-82
2021/05/13 03:34:03;;;;;;;;;;;9.40;99.90;;;;;;5037289;28;19925;-82
2021/05/13 03:36:31;;;;;;;;;;;9.40;99.90;;;;;;5037520;28;19921;-82
2021/05/13 03:38:58;;;;;;;;;;;9.40;99.90;;;;;;5037241;28;19921;-82
2021/05/13 03:41:24;;;;;;;;;;;9.40;99.90;;;;;;5037289;28;19925;-83
2021/05/13 03:43:51;;;;;;;;;;;9.40;99.90;;;;;;5037101;28;19943;-81
2021/05/13 03:46:17;;;;;;;;;;;9.40;99.90;;;;;;5037046;28;19921;-82
2021/05/13 03:48:43;;;;;;;;;;;9.40;99.90;;;;;;5037202;28;19947;-81
2021/05/13 03:51:10;;;;;;;;;;;9.40;99.90;;;;;;5037310;28;20323;-80
2021/05/13 03:53:36;;;;;;;;;;;9.40;99.90;;;;;;5037225;28;19921;-80
2021/05/13 03:56:03;;;;;;;;;;;9.40;99.90;;;;;;5036878;28;19982;-80
2021/05/13 03:58:32;;;;;;;;;;;9.40;99.90;;;;;;5036224;28;19924;-79
2021/05/13 04:01:11;;;;;;;;;;;9.50;99.90;;;;;;5016978;28;19972;-80
2021/05/13 04:03:37;;;;;;;;;;;9.50;99.90;;;;;;5017313;28;19921;-80
2021/05/13 04:06:04;;;;;;;;;;;9.50;99.90;;;;;;5016871;28;19921;-79
2021/05/13 04:08:30;;;;;;;;;;;9.50;99.90;;;;;;5016888;28;19929;-80
2021/05/13 04:10:56;;;;;;;;;;;9.50;99.90;;;;;;5016752;28;19936;-79
2021/05/13 04:13:24;;;;;;;;;;;9.50;99.90;;;;;;5017126;28;19936;-79
2021/05/13 04:15:50;;;;;;;;;;;9.50;99.90;;;;;;5017122;28;19921;-80
2021/05/13 04:18:17;;;;;;;;;;;9.50;99.90;;;;;;5016669;28;19929;-79
2021/05/13 04:20:43;;;;;;;;;;;9.50;99.90;;;;;;5016604;28;19932;-79
2021/05/13 04:23:09;;;;;;;;;;;9.50;99.90;;;;;;5016670;28;19925;-80
2021/05/13 04:25:36;;;;;;;;;;;9.50;99.90;;;;;;5016572;28;19944;-80
2021/05/13 04:28:02;;;;;;;;;;;9.50;99.90;;;;;;5016504;28;19925;-80
2021/05/13 04:30:29;;;;;;;;;;;9.50;99.90;;;;;;5016229;28;19921;-80
2021/05/13 04:32:56;;;;;;;;;;;9.50;99.90;;;;;;5016213;28;20072;-80
2021/05/13 04:35:22;;;;;;;;;;;9.50;99.90;;;;;;5016731;28;19935;-80
2021/05/13 04:37:48;;;;;;;;;;;9.50;99.90;;;;;;5016517;28;19928;-80
2021/05/13 04:40:15;;;;;;;;;;;9.50;99.90;;;;;;5016631;28;19944;-80
2021/05/13 04:42:41;;;;;;;;;;;9.50;99.90;;;;;;5016494;28;20000;-80
2021/05/13 04:45:08;;;;;;;;;;;9.50;99.90;;;;;;5017800;28;19932;-80
2021/05/13 04:47:51;;;;;;;;;;;9.60;99.90;;;;;;5035948;28;19935;-80
2021/05/13 04:50:17;;;;;;;;;;;9.60;99.90;;;;;;5035921;28;19932;-80
2021/05/13 04:52:43;;;;;;;;;;;9.60;99.90;;;;;;5035709;28;19932;-80
2021/05/13 04:55:10;;;;;;;;;;;9.60;99.90;;;;;;5035922;28;19924;-80
2021/05/13 04:57:37;;;;;;;;;;;9.60;99.90;;;;;;5035806;28;19921;-80
2021/05/13 05:00:03;;;;;;;;;;;9.60;99.90;;;;;;5035455;28;19924;-81
2021/05/13 05:02:29;;;;;;;;;;;9.70;99.90;;;;;;5035723;28;20342;-80
2021/05/13 05:04:57;;;;;;;;;;;9.70;99.90;;;;;;5035650;28;19925;-80
2021/05/13 05:07:23;;;;;;;;;;;9.70;99.90;;;;;;5035525;28;20273;-80
2021/05/13 05:09:49;;;;;;;;;;;9.70;99.90;;;;;;5035827;28;20288;-80
2021/05/13 05:12:16;;;;;;;;;;;9.80;99.90;;;;;;5035479;28;20253;-80
2021/05/13 05:14:42;;;;;;;;;;;9.80;99.90;;;;;;5035594;28;19971;-80
2021/05/13 05:17:08;;;;;;;;;;;9.80;99.90;;;;;;5035766;28;19921;-80
2021/05/13 05:19:35;;;;;;;;;;;9.80;99.90;;;;;;5035295;28;19935;-80
2021/05/13 05:22:02;;;;;;;;;;;9.80;99.90;;;;;;5035287;28;20434;-80
2021/05/13 05:24:28;;;;;;;;;;;9.80;99.90;;;;;;5035598;28;20256;-80
2021/05/13 05:26:55;;;;;;;;;;;9.90;99.90;;;;;;5035695;28;20265;-80
2021/05/13 05:29:21;;;;;;;;;;;9.90;99.90;;;;;;5035019;28;20027;-80
2021/05/13 05:31:48;;;;;;;;;;;9.90;99.90;;;;;;5035196;28;19925;-80
2021/05/13 05:34:14;;;;;;;;;;;10.00;99.90;;;;;;5035224;28;20413;-80
2021/05/13 05:36:40;;;;;;;;;;;10.00;99.90;;;;;;5035156;28;20346;-81
2021/05/13 05:39:08;;;;;;;;;;;10.10;99.90;;;;;;5035160;28;19921;-80
2021/05/13 05:41:34;;;;;;;;;;;10.10;99.90;;;;;;5035208;28;19920;-80
2021/05/13 05:44:00;;;;;;;;;;;10.20;99.90;;;;;;5034485;28;19935;-80
2021/05/13 05:46:27;;;;;;;;;;;10.20;99.90;;;;;;5034878;28;19921;-80
2021/05/13 05:48:55;;;;;;;;;;;10.30;99.90;;;;;;5034995;28;19925;-80
2021/05/13 05:51:21;;;;;;;;;;;10.30;99.90;;;;;;5034850;28;19921;-81
2021/05/13 05:53:47;;;;;;;;;;;10.40;99.90;;;;;;5034768;28;19921;-81
2021/05/13 05:56:15;;;;;;;;;;;10.40;99.90;;;;;;5034783;28;19970;-81
2021/05/13 05:58:41;;;;;;;;;;;10.50;99.90;;;;;;5034506;28;20261;-80
2021/05/13 06:01:07;;;;;;;;;;;10.60;99.90;;;;;;5035049;28;19928;-81
2021/05/13 06:03:34;;;;;;;;;;;10.60;99.90;;;;;;5034985;28;19921;-81
2021/05/13 06:06:00;;;;;;;;;;;10.60;99.90;;;;;;5034848;28;19921;-81
2021/05/13 06:08:26;;;;;;;;;;;10.70;99.90;;;;;;5034751;28;19921;-81
2021/05/13 06:10:53;;;;;;;;;;;10.90;99.90;;;;;;5034505;28;19925;-80
2021/05/13 06:13:20;;;;;;;;;;;11.00;99.90;;;;;;5034858;28;19921;-81
2021/05/13 06:15:47;;;;;;;2.40;0.77;;;11.10;99.90;;;;;;5034135;28;20374;-83
2021/05/13 06:18:13;;;;;;;1.40;1.17;;;11.20;99.90;;;;;;5034216;28;20053;-82
2021/05/13 06:20:40;;;;;;;4.22;1.60;;;11.30;99.90;;;;;;5034194;28;20060;-82
2021/05/13 06:23:08;;;;;;;4.82;1.90;;;11.40;99.90;;;;;;5034190;28;20050;-80
2021/05/13 06:25:34;;;;;;;3.58;1.52;;;11.50;99.90;;;;;;5034403;28;20049;-81
2021/05/13 06:28:01;;;;;;;2.97;1.60;;;11.70;99.90;;;;;;5034368;28;20068;-81
2021/05/13 06:30:28;;;;;;;4.40;2.03;;;11.90;99.90;;;;;;5033910;28;20050;-78
2021/05/13 06:32:55;;;;;;;6.47;2.47;;;12.30;99.90;;;;;;5034072;28;20053;-78
2021/05/13 06:35:22;;;;;;;2.35;1.80;;;12.60;99.90;;;;;;5034460;28;20045;-76
2021/05/13 06:37:48;;;;;;;3.60;1.77;;;12.90;99.90;;;;;;5034075;28;20103;-77
2021/05/13 06:40:15;;;;;;;2.30;1.60;;;13.20;99.90;;;;;;5034268;28;20106;-77
2021/05/13 06:42:42;;;;;;;3.38;2.00;;;13.50;99.90;;;;;;5033867;28;20045;-78
2021/05/13 06:45:09;;;;;;;1.88;1.27;;;13.70;99.90;;;;;;5033619;28;20045;-77
2021/05/13 06:47:38;;;;;;;3.10;1.80;;;13.90;99.90;;;;;;5033888;28;20059;-77
2021/05/13 06:50:06;;;;;;;3.03;1.58;;;14.10;99.90;;;;;;5034018;28;20059;-77
2021/05/13 06:52:32;;;;;;;3.35;2.22;;;14.40;99.90;;;;;;5033895;28;20049;-77
2021/05/13 06:54:59;;;;;;;5.68;2.55;;;14.70;99.90;;;;;;5034261;28;20050;-76
2021/05/13 06:57:26;;;;;;;4.68;1.85;;;14.90;99.90;;;;;;5038002;28;20060;-76
2021/05/13 06:59:52;;;;;;;3.58;1.90;;;15.20;99.90;;;;;;5037370;28;20389;-76
2021/05/13 07:02:21;;;;;;;4.43;1.70;;;15.50;99.90;;;;;;5037805;28;20114;-76
2021/05/13 07:04:49;;;;;;;2.28;1.55;;;15.60;99.90;;;;;;5037546;28;20049;-76
2021/05/13 07:07:17;;;;;;;2.80;1.55;;;15.60;99.90;;;;;;5037679;28;20057;-76
2021/05/13 07:09:44;;;;;;;2.65;1.73;;;15.50;99.90;;;;;;5037832;28;20444;-76
2021/05/13 07:12:11;;;;;;;3.67;1.25;;;15.50;99.90;;;;;;5037453;28;20045;-76
2021/05/13 07:14:38;;;;;;;4.00;1.90;;;15.50;99.90;;;;;;5037458;28;20119;-76
2021/05/13 07:17:04;;;;;;;2.03;1.48;;;15.60;99.90;;;;;;5037504;28;20049;-76
2021/05/13 07:19:31;;;;;;;3.33;1.63;;;15.80;99.90;;;;;;5037627;28;20091;-76
2021/05/13 07:22:00;;;;;;;5.80;1.48;;;16.10;99.90;;;;;;5037124;28;20231;-76
2021/05/13 07:24:27;;;;;;;2.92;1.45;;;16.50;99.90;;;;;;5037084;28;20095;-76
2021/05/13 07:26:54;;;;;;;2.67;1.60;;;17.10;99.90;;;;;;5037224;28;20049;-76
2021/05/13 07:29:20;;;;;;;2.45;1.42;;;17.90;99.90;;;;;;5036987;28;20049;-76
2021/05/13 07:31:47;;;;;;;1.77;1.13;;;18.50;99.90;;;;;;5037144;28;20056;-76
2021/05/13 07:34:13;;;;;;;3.15;1.50;;;18.60;99.90;;;;;;5036914;28;20497;-76
2021/05/13 07:36:40;;;;;;;1.92;1.00;;;18.50;99.90;;;;;;5036889;28;20485;-76
2021/05/13 07:39:08;;;;;;;1.60;1.10;;;18.40;99.90;;;;;;5036920;28;20045;-76
2021/05/13 07:41:34;;;;;;;2.92;1.42;;;18.50;99.90;;;;;;5037081;28;20057;-76
2021/05/13 07:44:01;;;;;;;2.80;1.25;;;18.50;99.90;;;;;;5036819;28;20458;-76
2021/05/13 07:46:34;;;;;;;1.98;1.08;;;18.40;99.90;;;;;;5036622;28;20136;-76
2021/05/13 07:49:00;;;;;;;2.08;1.35;;;18.50;99.90;;;;;;5036808;28;20049;-76
2021/05/13 07:51:27;;;;;;;1.20;0.77;;;18.70;99.90;;;;;;5036999;28;20049;-76
2021/05/13 07:53:53;;;;;;;1.60;1.05;;;18.70;99.90;;;;;;5036853;28;20057;-76
2021/05/13 07:56:21;;;;;;;1.83;1.00;;;18.70;99.90;;;;;;5036697;28;20049;-76
2021/05/13 07:58:48;;;;;;;2.00;1.17;;;18.50;99.90;;;;;;5033690;28;20058;-76
2021/05/13 08:01:14;;;;;;;2.85;1.33;;;18.50;99.90;;;;;;5016826;28;20046;-76
2021/05/13 08:03:41;;;;;;;2.97;0.98;;;18.70;99.90;;;;;;5017077;28;20054;-76
2021/05/13 08:06:08;;;;;;;0.43;0.30;;;18.70;99.90;;;;;;5016569;28;20479;-76
2021/05/13 08:08:34;;;;;;;3.50;1.00;;;18.40;99.90;;;;;;5015832;28;20393;-76
2021/05/13 08:11:01;;;;;;;2.10;1.35;;;18.20;99.90;;;;;;5016653;28;20300;-76
2021/05/13 08:13:30;;;;;;;2.78;1.38;;;17.90;99.90;;;;;;5016782;28;20418;-76
2021/05/13 08:15:57;;;;;;;3.22;1.40;;;17.50;99.90;;;;;;5016481;28;20046;-76
2021/05/13 08:18:23;;;;;;;1.90;1.20;;;17.00;99.90;;;;;;5016427;28;20068;-77
2021/05/13 08:20:50;;;;;;;1.90;1.33;;;16.80;99.90;;;;;;5016283;28;20374;-77
2021/05/13 08:23:17;;;;;;;0.85;0.77;;;16.60;99.90;;;;;;5016341;28;20056;-77
2021/05/13 08:25:43;;;;;;;1.67;0.77;;;16.50;99.90;;;;;;5016212;28;20474;-77
2021/05/13 08:28:10;;;;;;;1.65;0.90;;;16.30;99.90;;;;;;5016257;28;20050;-77
2021/05/13 08:30:37;;;;;;;4.35;1.60;;;16.20;99.90;;;;;;5016144;28;20489;-77
2021/05/13 08:33:04;;;;;;;2.15;1.55;;;16.10;99.90;;;;;;5016380;28;20068;-77
2021/05/13 08:35:31;;;;;;;1.35;0.90;;;16.00;99.90;;;;;;5016392;28;20050;-76
2021/05/13 08:37:57;;;;;;;1.88;0.77;;;15.90;99.90;;;;;;5016030;28;20064;-77
2021/05/13 08:40:24;;;;;;;5.03;1.23;;;15.80;99.90;;;;;;5015654;28;20132;-77
2021/05/13 08:42:51;;;;;;;1.23;0.43;;;15.80;99.90;;;;;;5015340;28;20045;-77
2021/05/13 08:45:18;;;;;;;1.02;0.52;;;15.60;99.90;;;;;;5018449;28;20049;-77
2021/05/13 08:47:46;;;;;;;2.50;0.45;;;15.50;99.90;;;;;;5035130;28;20049;-77
2021/05/13 08:50:13;;;;;;;7.10;0.85;;;15.50;99.90;;;;;;5035663;28;20057;-77
2021/05/13 08:52:39;;;;;;;1.83;0.90;;;15.40;99.90;;;;;;5035843;28;20059;-78
2021/05/13 08:55:07;;;;;;;4.13;1.35;;;15.40;99.90;;;;;;5035454;28;20057;-78
2021/05/13 08:57:34;;;;;;;0.52;0.45;;;15.40;99.90;;;;;;5035473;28;20057;-77
2021/05/13 09:00:00;;;;;;;1.20;0.50;;;15.30;99.90;;;;;;5035206;28;20061;-77
2021/05/13 09:02:29;;;;;;;0.85;0.50;;;15.20;99.90;;;;;;5035360;28;20060;-78
2021/05/13 09:04:57;;;;;;;1.92;0.80;;;15.10;99.90;;;;;;5035178;28;20057;-77
2021/05/13 09:07:26;;;;;;;2.45;1.27;;;15.10;99.90;;;;;;5035525;28;20393;-78
2021/05/13 09:10:04;;;;;;;0.50;0.40;;;15.00;99.90;;;;;;5035140;28;20056;-78
2021/05/13 09:12:32;;;;;;;0.63;0.45;;;14.90;99.90;;;;;;5035141;28;20056;-78
2021/05/13 09:15:00;;;;;;;0.52;0.30;;;14.80;99.90;;;;;;5035283;28;20147;-78
2021/05/13 09:17:28;;;;;;;1.13;0.45;;;14.70;99.90;;;;;;5035351;28;20100;-77
2021/05/13 09:19:55;;;;;;;3.85;0.30;;;14.70;99.90;;;;;;5034191;28;20410;-78
2021/05/13 09:22:23;;;;;;;;;;;14.70;99.90;;;;;;5035260;28;20049;-77
2021/05/13 09:24:51;;;;;;;2.97;0.80;;;14.90;99.90;;;;;;5034128;28;20526;-78
2021/05/13 09:27:20;;;;;;;0.70;0.40;;;15.10;99.90;;;;;;5034881;28;20437;-78
2021/05/13 09:29:46;;;;;;;1.50;0.70;;;15.30;99.90;;;;;;5034565;28;20133;-78
2021/05/13 09:32:16;;;;;;;;;;;15.50;99.90;;;;;;5035349;28;20126;-76
2021/05/13 09:34:43;;;;;;;;;;;15.60;99.90;;;;;;5035204;28;19928;-77
2021/05/13 09:37:09;;;;;;;;;;;15.70;99.90;;;;;;5035190;28;20364;-76
2021/05/13 09:39:36;;;;;;;;;;;15.70;99.90;;;;;;5035185;28;20353;-76
2021/05/13 09:42:03;;;;;;;;;;;15.70;99.90;;;;;;5034445;28;20348;-76
2021/05/13 09:44:30;;;;;;;;;;;15.60;99.90;;;;;;5034938;28;19921;-76
2021/05/13 09:46:57;;;;;;;;;;;15.50;99.90;;;;;;5034870;28;20349;-77
2021/05/13 09:49:23;;;;;;;;;;;15.50;99.90;;;;;;5035222;28;19925;-76
2021/05/13 09:51:49;;;;;;;;;;;15.50;99.90;;;;;;5034902;28;19964;-77
2021/05/13 09:54:16;;;;;;;;;;;15.60;99.90;;;;;;5034900;28;20004;-76
2021/05/13 09:56:45;;;;;;;;;;;15.70;99.90;;;;;;5034821;28;19935;-77
2021/05/13 09:59:22;;;;;;;;;;;15.80;99.90;;;;;;5034794;28;19928;-77
2021/05/13 10:01:48;;;;;;;;;;;15.80;99.90;;;;;;5034762;28;19921;-76
2021/05/13 10:04:15;;;;;;;;;;;15.90;99.90;;;;;;5034933;28;19920;-76
2021/05/13 10:06:41;;;;;;;;;;;16.00;99.90;;;;;;5034898;28;19921;-77
2021/05/13 10:09:07;;;;;;;;;;;16.10;99.90;;;;;;5034772;28;19921;-76
2021/05/13 10:11:34;;;;;;;;;;;16.10;99.90;;;;;;5034913;28;19936;-76
2021/05/13 10:14:01;;;;;;;;;;;16.20;99.90;;;;;;5034877;28;19921;-76
2021/05/13 10:16:28;;;;;;;;;;;16.10;99.90;;;;;;5035046;28;19921;-76
2021/05/13 10:18:55;;;;;;;;;;;15.90;99.90;;;;;;5034666;28;20354;-76
2021/05/13 10:21:21;;;;;;;;;;;15.80;99.90;;;;;;5034995;28;19994;-77
2021/05/13 10:23:49;;;;;;;;;;;15.60;99.90;;;;;;5034793;28;19920;-77
2021/05/13 10:26:20;;;;;;;;;;;15.40;99.90;;;;;;5026785;28;19927;-76
2021/05/13 10:28:47;;;;;;;;;;;15.20;99.90;;;;;;5034054;28;19925;-76
2021/05/13 10:31:14;;;;;;;;;;;15.10;99.90;;;;;;5036869;28;19925;-77
2021/05/13 10:33:45;;;;;;;;;;;14.90;99.90;;;;;;5038874;28;19921;-77
2021/05/13 10:36:14;;;;;;;;;;;14.80;99.90;;;;;;5038514;28;19921;-77
2021/05/13 10:38:41;;;;;;;;;;;14.70;99.90;;;;;;5038435;28;20473;-77
2021/05/13 10:41:26;;;;;;;;;;;14.60;99.90;;;;;;5038517;28;19921;-78
2021/05/13 10:43:52;;;;;;;;;;;14.40;99.90;;;;;;5038168;28;19921;-77
2021/05/13 10:46:26;;;;;;;;;;;14.20;99.90;;;;;;5037993;28;19921;-77
2021/05/13 10:48:53;;;;;;;;;;;14.10;99.90;;;;;;5038149;28;19929;-77
2021/05/13 10:51:24;;;;;;;;;;;14.00;99.90;;;;;;5038184;28;19921;-78
2021/05/13 10:53:50;;;;;;;;;;;13.90;99.90;;;;;;5038110;28;19931;-76
2021/05/13 10:56:22;;;;;;;;;;;13.80;99.90;;;;;;5038193;28;19921;-76
2021/05/13 10:58:52;;;;;;;;;;;13.80;99.90;;;;;;5037966;28;19932;-76
2021/05/13 11:01:23;;;;;;;;;;;13.70;99.90;;;;;;5038232;28;19920;-77
2021/05/13 11:04:04;;;;;;;;;;;13.60;99.90;;;;;;5037882;28;19964;-77
2021/05/13 11:06:35;;;;;;;;;;;13.40;99.90;;;;;;5036827;28;19925;-78
2021/05/13 11:09:01;;;;;;;;;;;13.30;99.90;;;;;;5037910;28;19925;-76
2021/05/13 11:11:28;;;;;;;;;;;13.30;99.90;;;;;;5037919;28;20004;-78
2021/05/13 11:13:55;;;;;;;;;;;13.10;99.90;;;;;;5037694;28;19925;-78
2021/05/13 11:16:41;;;;;;;;;;;13.10;99.90;;;;;;5037885;28;19928;-76
2021/05/13 11:19:30;;;;;;;;;;;13.00;99.90;;;;;;5037595;28;19921;-77
2021/05/13 11:22:06;;;;;;;;;;;12.90;99.90;;;;;;5037709;28;19921;-76
2021/05/13 11:24:36;;;;;;;;;;;12.90;99.90;;;;;;5037732;28;20067;-76
2021/05/13 11:27:03;;;;;;;;;;;12.90;99.90;;;;;;5037485;28;19964;-76
2021/05/13 11:29:42;;;;;;;;;;;12.90;99.90;;;;;;5037395;28;20363;-77
2021/05/13 11:32:08;;;;;;;;;;;13.00;99.90;;;;;;5037617;28;20018;-76
2021/05/13 11:34:36;;;;;;;;;;;13.20;99.90;;;;;;5037286;28;20015;-77
2021/05/13 11:37:02;;;;;;;;;;;13.40;99.90;;;;;;5037222;28;19925;-78
2021/05/13 11:39:29;;;;;;;7.10;2.85;;;13.50;99.90;;;;;;5035847;28;20403;-79
2021/05/13 11:42:00;;;;;;;3.85;2.25;;;13.60;99.90;;;;;;5036063;28;20071;-77
2021/05/13 11:44:28;;;;;;;2.55;1.52;;;13.80;99.90;;;;;;5036662;28;20050;-78
2021/05/13 11:46:56;;;;;;;4.30;1.80;;;13.90;99.90;;;;;;5036061;28;20462;-78
2021/05/13 11:49:22;;;;;;;5.03;2.80;;;14.00;99.90;;;;;;5036678;28;20057;-78
2021/05/13 11:51:50;;;;;;;4.85;2.42;;;14.10;99.90;;;;;;5036582;28;20377;-78
2021/05/13 11:54:17;;;;;;;;;;;14.20;99.90;;;;;;5037231;28;20087;-77
2021/05/13 11:56:44;;;;;;;4.63;2.53;;;14.30;99.90;;;;;;5035577;28;20415;-78
2021/05/13 11:59:10;;;;;;;4.15;2.88;;;14.40;99.90;;;;;;5030446;28;20390;-78
2021/05/13 12:01:37;;;;;;;6.65;3.22;;;15.50;99.90;;;;;;5016830;28;20137;-78
2021/05/13 12:04:06;;;;;;;2.67;1.67;;;14.50;99.90;;;;;;5016731;28;20058;-78
2021/05/13 12:06:48;;;;;;;;;;;14.50;99.90;;;;;;5016876;28;20046;-77
2021/05/13 12:09:16;;;;;;;;;;;14.50;99.90;;;;;;5017127;28;20227;-77
2021/05/13 12:11:42;;;;;;;;;;;14.40;99.90;;;;;;5017124;28;20012;-77
2021/05/13 12:14:11;;;;;;;;;;;14.50;99.90;;;;;;5016956;28;19932;-76
2021/05/13 12:16:38;;;;;;;;;;;14.50;99.90;;;;;;5016924;28;19957;-76
2021/05/13 12:19:07;;;;;;;;;;;14.60;99.90;;;;;;5017055;28;19922;-76
2021/05/13 12:21:35;;;;;;;;;;;14.60;99.90;;;;;;5016793;28;20369;-77
2021/05/13 12:24:02;;;;;;;;;;;14.80;99.90;;;;;;5016949;28;20024;-77
2021/05/13 12:26:30;;;;;;;;;;;14.90;99.90;;;;;;5016570;28;19939;-77
2021/05/13 12:28:57;;;;;;;;;;;15.00;99.90;;;;;;5016433;28;20269;-77
2021/05/13 12:31:24;;;;;;;;;;;15.10;99.90;;;;;;5016584;28;19929;-76
2021/05/13 12:33:50;;;;;;;;;;;15.10;99.90;;;;;;5016828;28;19922;-76
2021/05/13 12:36:16;;;;;;;;;;;15.20;99.90;;;;;;5016652;28;19921;-77
2021/05/13 12:38:43;;;;;;;;;;;15.30;99.90;;;;;;5016379;28;19932;-77
2021/05/13 12:41:10;;;;;;;;;;;15.30;99.90;;;;;;5015712;28;19925;-77
2021/05/13 12:43:37;;;;;;;;;;;15.40;99.90;;;;;;5016214;28;19976;-77
2021/05/13 12:46:14;;;;;;;;;;;15.30;99.90;;;;;;5025450;28;19924;-77
2021/05/13 12:48:41;;;;;;;;;;;15.20;99.90;;;;;;5035944;28;19921;-76
2021/05/13 12:51:08;;;;;;;;;;;15.10;99.90;;;;;;5036006;28;19972;-77
2021/05/13 12:53:34;;;;;;;;;;;14.90;99.90;;;;;;5035611;28;19936;-78
2021/05/13 12:56:00;;;;;;;;;;;14.80;99.90;;;;;;5035718;28;19921;-78
2021/05/13 12:58:27;;;;;;;;;;;14.50;99.90;;;;;;5035640;28;19932;-77
2021/05/13 13:00:55;;;;;;;;;;;14.40;99.90;;;;;;5035945;28;19921;-77
2021/05/13 13:03:28;;;;;;;;;;;14.30;99.90;;;;;;5035919;28;19932;-77
2021/05/13 13:06:04;;;;;;;;;;;14.20;99.90;;;;;;5035618;28;20337;-78
2021/05/13 13:08:38;;;;;;;5.17;2.30;;;14.10;99.90;;;;;;5034520;28;20736;-78
2021/05/13 13:11:05;;;;;;;3.60;1.58;;;14.00;99.90;;;;;;5035344;28;20107;-78
2021/05/13 13:13:40;;;;;;;3.05;1.45;;;14.00;99.90;;;;;;5035095;28;20064;-78
2021/05/13 13:16:16;;;;;;;1.48;1.20;;;14.00;99.90;;;;;;5035575;28;20050;-78
2021/05/13 13:18:42;;;;;;;5.25;1.27;;;14.00;99.90;;;;;;5035031;28;20072;-78
2021/05/13 13:21:12;;;;;;;4.43;1.63;;;14.00;99.90;;;;;;5035062;28;20049;-78
2021/05/13 13:23:39;;;;;;;3.20;1.10;;;14.10;99.90;;;;;;5034934;28;20060;-79
2021/05/13 13:26:08;;;;;;;4.07;1.77;;;14.20;99.90;;;;;;5035078;28;20049;-79
2021/05/13 13:28:35;;;;;;;1.88;1.52;;;14.20;99.90;;;;;;5034619;28;20466;-78
2021/05/13 13:31:04;;;;;;;;;;;14.40;99.90;;;;;;5035415;28;20204;-78
2021/05/13 13:33:32;;;;;;;;;;;14.40;99.90;;;;;;5035553;28;19921;-77
2021/05/13 13:35:59;;;;;;;3.08;1.23;;;14.50;99.90;;;;;;5034552;28;20883;-77
2021/05/13 13:38:26;;;;;;;2.33;1.48;;;14.60;99.90;;;;;;5034622;28;20053;-78
2021/05/13 13:40:54;;;;;;;2.17;1.42;;;14.70;99.90;;;;;;5034525;28;20140;-78
2021/05/13 13:43:21;;;;;;;4.57;1.35;;;14.70;99.90;;;;;;5034534;28;20508;-77
2021/05/13 13:45:47;;;;;;;3.92;0.90;;;14.80;99.90;;;;;;5034407;28;20057;-78
2021/05/13 13:48:15;;;;;;;2.13;0.95;;;14.90;99.90;;;;;;5034630;28;20057;-78
2021/05/13 13:50:42;;;;;;;;;;;14.90;99.90;;;;;;5034745;28;20049;-78
2021/05/13 13:53:09;;;;;;;;;;;14.90;99.90;;;;;;5034911;28;20269;-77